Date,TemperatureHighF,TemperatureAvgF,TemperatureLowF,DewpointHighF,DewpointAvgF,DewpointLowF,HumidityHigh,HumidityAvg,HumidityLow,PressureMaxIn,PressureMinIn,WindSpeedMaxMPH,WindSpeedAvgMPH,GustSpeedMaxMPH,PrecipitationSumIn
2013-4-1,72,59,49,55,46,35,100,70,30,29.95,29.79,19,2,21,0.03
2013-4-2,61,47,32,35,30,20,95,55,22,30.15,29.96,14,2,18,0.00
2013-4-3,60,46,32,34,27,17,85,53,20,30.29,30.12,15,1,15,0.00
2013-4-4,45,40,37,37,31,20,95,71,42,30.35,29.93,14,2,14,0.87
2013-4-5,66,48,36,49,41,36,99,80,39,30.01,29.86,11,2,13,0.03
2013-4-6,66,49,31,41,33,25,99,61,24,30.25,30.01,12,1,14,0.00
2013-4-7,72,55,35,47,39,31,92,59,33,30.27,30.08,14,1,16,0.00
2013-4-8,80,63,46,58,51,43,99,67,39,30.15,30.02,17,2,17,0.00
2013-4-9,86,70,53,61,56,51,100,65,37,30.16,30.02,12,1,14,0.00
2013-4-10,88,72,56,65,58,53,97,66,38,30.08,29.91,12,1,15,0.00
2013-4-11,81,70,60,65,60,55,90,71,48,29.97,29.75,14,2,16,0.00
2013-4-12,83,71,60,69,62,44,100,76,44,29.77,29.56,18,2,18,0.61
2013-4-13,76,61,44,47,42,38,87,55,26,29.99,29.74,12,2,14,0.00
2013-4-14,81,61,40,54,43,35,100,60,21,30.09,29.99,11,1,13,0.00
2013-4-15,72,63,57,59,56,54,97,81,59,30.18,29.98,10,1,12,0.07
2013-4-16,78,65,57,62,58,54,100,79,52,30.27,30.16,7,0,9,0.00
2013-4-17,82,67,52,67,61,52,100,83,52,30.21,30.08,11,1,12,0.00
2013-4-18,80,69,58,64,60,56,99,74,51,30.16,30.00,15,2,17,0.00
2013-4-19,82,70,63,69,64,60,99,85,60,30.01,29.67,21,2,28,0.81
2013-4-20,65,54,42,62,39,31,98,61,31,30.26,29.79,16,2,20,0.02
2013-4-21,62,49,36,42,38,34,97,67,43,30.47,30.26,15,2,17,0.01
2013-4-22,64,50,35,42,35,30,85,60,36,30.46,30.24,14,2,15,0.00
2013-4-23,70,54,46,52,46,42,93,74,49,30.27,30.09,12,1,12,0.01
2013-4-24,76,61,43,61,52,42,100,77,51,30.12,29.94,15,1,19,0.01
2013-4-25,71,60,44,55,44,37,90,59,31,30.26,29.98,14,2,15,0.00
2013-4-26,73,55,37,48,40,32,99,65,24,30.41,30.25,11,1,13,0.00
2013-4-27,73,60,49,54,48,39,91,69,35,30.36,30.24,11,0,11,0.00
2013-4-28,58,55,52,55,52,49,100,89,75,30.25,30.06,9,0,9,1.03
2013-4-29,73,36,55,100,78,55,100,50,71,30.06,29.93,6,-445,7,0.08
2013-4-30,67,60,52,61,58,51,100,94,81,30.17,29.97,9,1,10,0.00